sensor_id;sensor_type;location;lat;lon;timestamp;temperature;humidity
7117;DHT22;3600;48.568;7.870;2023-05-10T00:00:46;14.80;99.90
7117;DHT22;3600;48.568;7.870;2023-05-10T00:03:13;14.80;99.90
7117;DHT22;3600;48.568;7.870;2023-05-10T00:05:40;14.80;99.90
7117;DHT22;3600;48.568;7.870;2023-05-10T00:08:07;14.80;99.90
7117;DHT22;3600;48.568;7.870;2023-05-10T00:10:34;14.80;99.90
7117;DHT22;3600;48.568;7.870;2023-05-10T00:13:00;14.70;99.90
7117;DHT22;3600;48.568;7.870;2023-05-10T00:15:27;14.80;99.90
7117;DHT22;3600;48.568;7.870;2023-05-10T00:17:54;14.80;99.90
7117;DHT22;3600;48.568;7.870;2023-05-10T00:20:21;14.80;99.90
7117;DHT22;3600;48.568;7.870;2023-05-10T00:22:47;14.80;99.90
7117;DHT22;3600;48.568;7.870;2023-05-10T00:25:14;14.80;99.90
7117;DHT22;3600;48.568;7.870;2023-05-10T00:27:41;14.80;99.90
7117;DHT22;3600;48.568;7.870;2023-05-10T00:30:08;14.80;99.90
7117;DHT22;3600;48.568;7.870;2023-05-10T00:32:35;14.80;99.90
7117;DHT22;3600;48.568;7.870;2023-05-10T00:35:02;14.80;99.90
7117;DHT22;3600;48.568;7.870;2023-05-10T00:37:28;14.80;99.90
7117;DHT22;3600;48.568;7.870;2023-05-10T00:39:55;14.80;99.90
7117;DHT22;3600;48.568;7.870;2023-05-10T00:42:22;14.80;99.90
7117;DHT22;3600;48.568;7.870;2023-05-10T00:44:48;14.80;99.90
7117;DHT22;3600;48.568;7.870;2023-05-10T00:47:16;14.80;99.90
7117;DHT22;3600;48.568;7.870;2023-05-10T00:49:43;14.80;99.90
7117;DHT22;3600;48.568;7.870;2023-05-10T00:52:10;14.80;99.90
7117;DHT22;3600;48.568;7.870;2023-05-10T00:54:37;14.80;99.90
7117;DHT22;3600;48.568;7.870;2023-05-10T00:57:04;14.70;99.90
7117;DHT22;3600;48.568;7.870;2023-05-10T00:59:31;14.70;99.90
7117;DHT22;3600;48.568;7.870;2023-05-10T01:01:58;14.70;99.90
7117;DHT22;3600;48.568;7.870;2023-05-10T01:04:25;14.70;99.90
7117;DHT22;3600;48.568;7.870;2023-05-10T01:06:52;14.70;99.90
7117;DHT22;3600;48.568;7.870;2023-05-10T01:09:23;14.70;99.90
7117;DHT22;3600;48.568;7.870;2023-05-10T01:11:53;14.70;99.90
7117;DHT22;3600;48.568;7.870;2023-05-10T01:14:20;14.70;99.90
7117;DHT22;3600;48.568;7.870;2023-05-10T01:16:49;14.80;99.90
7117;DHT22;3600;48.568;7.870;2023-05-10T01:19:20;14.80;99.90
7117;DHT22;3600;48.568;7.870;2023-05-10T01:26:16;14.80;99.90
7117;DHT22;3600;48.568;7.870;2023-05-10T01:34:25;14.70;99.90
7117;DHT22;3600;48.568;7.870;2023-05-10T01:37:05;14.70;99.90
7117;DHT22;3600;48.568;7.870;2023-05-10T01:39:50;14.50;99.90
7117;DHT22;3600;48.568;7.870;2023-05-10T01:42:21;14.60;99.90
7117;DHT22;3600;48.568;7.870;2023-05-10T01:47:44;14.60;99.90
7117;DHT22;3600;48.568;7.870;2023-05-10T01:50:22;14.50;99.90
7117;DHT22;3600;48.568;7.870;2023-05-10T01:52:53;14.50;99.90
7117;DHT22;3600;48.568;7.870;2023-05-10T01:55:22;14.50;99.90
7117;DHT22;3600;48.568;7.870;2023-05-10T01:57:55;14.60;99.90
7117;DHT22;3600;48.568;7.870;2023-05-10T02:00:24;14.60;99.90
7117;DHT22;3600;48.568;7.870;2023-05-10T02:02:59;14.50;99.90
7117;DHT22;3600;48.568;7.870;2023-05-10T02:05:28;14.40;99.90
7117;DHT22;3600;48.568;7.870;2023-05-10T02:07:58;14.50;99.90
7117;DHT22;3600;48.568;7.870;2023-05-10T02:10:25;14.40;99.90
7117;DHT22;3600;48.568;7.870;2023-05-10T02:12:53;14.40;99.90
7117;DHT22;3600;48.568;7.870;2023-05-10T02:15:23;14.50;99.90
7117;DHT22;3600;48.568;7.870;2023-05-10T02:17:54;14.50;99.90
7117;DHT22;3600;48.568;7.870;2023-05-10T02:20:22;14.50;99.90
7117;DHT22;3600;48.568;7.870;2023-05-10T02:22:51;14.40;99.90
7117;DHT22;3600;48.568;7.870;2023-05-10T02:25:20;14.40;99.90
7117;DHT22;3600;48.568;7.870;2023-05-10T02:27:48;14.30;99.90
7117;DHT22;3600;48.568;7.870;2023-05-10T02:30:16;14.30;99.90
7117;DHT22;3600;48.568;7.870;2023-05-10T02:32:44;14.30;99.90
7117;DHT22;3600;48.568;7.870;2023-05-10T02:35:12;14.30;99.90
7117;DHT22;3600;48.568;7.870;2023-05-10T02:37:39;14.10;99.90
7117;DHT22;3600;48.568;7.870;2023-05-10T02:40:07;14.10;99.90
7117;DHT22;3600;48.568;7.870;2023-05-10T02:42:37;14.10;99.90
7117;DHT22;3600;48.568;7.870;2023-05-10T02:45:12;14.20;99.90
7117;DHT22;3600;48.568;7.870;2023-05-10T02:47:39;14.40;99.90
7117;DHT22;3600;48.568;7.870;2023-05-10T02:50:07;14.40;99.90
7117;DHT22;3600;48.568;7.870;2023-05-10T02:52:50;14.50;99.90
7117;DHT22;3600;48.568;7.870;2023-05-10T02:55:22;14.50;99.90
7117;DHT22;3600;48.568;7.870;2023-05-10T02:57:56;14.50;99.90
7117;DHT22;3600;48.568;7.870;2023-05-10T03:00:25;14.30;99.90
7117;DHT22;3600;48.568;7.870;2023-05-10T03:02:52;14.30;99.90
7117;DHT22;3600;48.568;7.870;2023-05-10T03:05:19;14.40;99.90
7117;DHT22;3600;48.568;7.870;2023-05-10T03:07:46;14.40;99.90
7117;DHT22;3600;48.568;7.870;2023-05-10T03:10:14;14.40;99.90
7117;DHT22;3600;48.568;7.870;2023-05-10T03:15:44;14.40;99.90
7117;DHT22;3600;48.568;7.870;2023-05-10T03:18:22;14.40;99.90
7117;DHT22;3600;48.568;7.870;2023-05-10T03:20:51;14.40;99.90
7117;DHT22;3600;48.568;7.870;2023-05-10T03:23:27;14.40;99.90
7117;DHT22;3600;48.568;7.870;2023-05-10T03:25:56;14.40;99.90
7117;DHT22;3600;48.568;7.870;2023-05-10T03:28:25;14.40;99.90
7117;DHT22;3600;48.568;7.870;2023-05-10T03:30:53;14.40;99.90
7117;DHT22;3600;48.568;7.870;2023-05-10T03:33:21;14.40;99.90
7117;DHT22;3600;48.568;7.870;2023-05-10T03:35:48;14.40;99.90
7117;DHT22;3600;48.568;7.870;2023-05-10T03:38:14;14.40;99.90
7117;DHT22;3600;48.568;7.870;2023-05-10T03:40:41;14.40;99.90
7117;DHT22;3600;48.568;7.870;2023-05-10T03:43:08;14.40;99.90
7117;DHT22;3600;48.568;7.870;2023-05-10T03:45:35;14.40;99.90
7117;DHT22;3600;48.568;7.870;2023-05-10T03:48:02;14.30;99.90
7117;DHT22;3600;48.568;7.870;2023-05-10T03:50:29;14.30;99.90
7117;DHT22;3600;48.568;7.870;2023-05-10T03:52:55;14.40;99.90
7117;DHT22;3600;48.568;7.870;2023-05-10T03:55:22;14.40;99.90
7117;DHT22;3600;48.568;7.870;2023-05-10T03:57:49;14.30;99.90
7117;DHT22;3600;48.568;7.870;2023-05-10T04:00:16;14.30;99.90
7117;DHT22;3600;48.568;7.870;2023-05-10T04:02:43;14.20;99.90
7117;DHT22;3600;48.568;7.870;2023-05-10T04:05:12;14.20;99.90
7117;DHT22;3600;48.568;7.870;2023-05-10T04:07:39;14.10;99.90
7117;DHT22;3600;48.568;7.870;2023-05-10T04:10:06;14.20;99.90
7117;DHT22;3600;48.568;7.870;2023-05-10T04:12:33;14.10;99.90
7117;DHT22;3600;48.568;7.870;2023-05-10T04:15:00;14.10;99.90
7117;DHT22;3600;48.568;7.870;2023-05-10T04:17:26;14.10;99.90
7117;DHT22;3600;48.568;7.870;2023-05-10T04:19:53;14.10;99.90
7117;DHT22;3600;48.568;7.870;2023-05-10T04:22:21;14.10;99.90
7117;DHT22;3600;48.568;7.870;2023-05-10T04:24:48;14.10;99.90
7117;DHT22;3600;48.568;7.870;2023-05-10T04:27:14;14.10;99.90
7117;DHT22;3600;48.568;7.870;2023-05-10T04:29:41;14.10;99.90
7117;DHT22;3600;48.568;7.870;2023-05-10T04:32:08;14.10;99.90
7117;DHT22;3600;48.568;7.870;2023-05-10T04:34:36;14.10;99.90
7117;DHT22;3600;48.568;7.870;2023-05-10T04:37:03;14.10;99.90
7117;DHT22;3600;48.568;7.870;2023-05-10T04:39:30;14.10;99.90
7117;DHT22;3600;48.568;7.870;2023-05-10T04:41:57;14.10;99.90
7117;DHT22;3600;48.568;7.870;2023-05-10T04:44:24;14.10;99.90
7117;DHT22;3600;48.568;7.870;2023-05-10T04:46:51;14.10;99.90
7117;DHT22;3600;48.568;7.870;2023-05-10T04:49:17;14.10;99.90
7117;DHT22;3600;48.568;7.870;2023-05-10T04:51:44;14.00;99.90
7117;DHT22;3600;48.568;7.870;2023-05-10T04:54:11;14.00;99.90
7117;DHT22;3600;48.568;7.870;2023-05-10T04:56:37;14.10;99.90
7117;DHT22;3600;48.568;7.870;2023-05-10T04:59:04;14.00;99.90
7117;DHT22;3600;48.568;7.870;2023-05-10T05:01:31;14.10;99.90
7117;DHT22;3600;48.568;7.870;2023-05-10T05:03:58;14.10;99.90
7117;DHT22;3600;48.568;7.870;2023-05-10T05:06:26;14.10;99.90
7117;DHT22;3600;48.568;7.870;2023-05-10T05:08:53;14.10;99.90
7117;DHT22;3600;48.568;7.870;2023-05-10T05:11:20;14.10;99.90
7117;DHT22;3600;48.568;7.870;2023-05-10T05:13:47;14.10;99.90
7117;DHT22;3600;48.568;7.870;2023-05-10T05:16:14;14.10;99.90
7117;DHT22;3600;48.568;7.870;2023-05-10T05:18:40;14.10;99.90
7117;DHT22;3600;48.568;7.870;2023-05-10T05:21:17;14.10;99.90
7117;DHT22;3600;48.568;7.870;2023-05-10T05:23:45;14.10;99.90
7117;DHT22;3600;48.568;7.870;2023-05-10T05:26:11;14.10;99.90
7117;DHT22;3600;48.568;7.870;2023-05-10T05:28:38;14.10;99.90
7117;DHT22;3600;48.568;7.870;2023-05-10T05:31:06;14.00;99.90
7117;DHT22;3600;48.568;7.870;2023-05-10T05:33:34;14.10;99.90
7117;DHT22;3600;48.568;7.870;2023-05-10T05:36:05;14.20;99.90
7117;DHT22;3600;48.568;7.870;2023-05-10T05:38:32;14.20;99.90
7117;DHT22;3600;48.568;7.870;2023-05-10T05:40:58;14.10;99.90
7117;DHT22;3600;48.568;7.870;2023-05-10T05:43:25;14.10;99.90
7117;DHT22;3600;48.568;7.870;2023-05-10T05:45:52;14.20;99.90
7117;DHT22;3600;48.568;7.870;2023-05-10T05:48:20;14.10;99.90
7117;DHT22;3600;48.568;7.870;2023-05-10T05:50:47;14.10;99.90
7117;DHT22;3600;48.568;7.870;2023-05-10T05:53:14;14.10;99.90
7117;DHT22;3600;48.568;7.870;2023-05-10T05:55:50;14.10;99.90
7117;DHT22;3600;48.568;7.870;2023-05-10T05:58:17;14.20;99.90
7117;DHT22;3600;48.568;7.870;2023-05-10T06:00:43;14.10;99.90
7117;DHT22;3600;48.568;7.870;2023-05-10T06:03:10;14.10;99.90
7117;DHT22;3600;48.568;7.870;2023-05-10T06:05:37;14.20;99.90
7117;DHT22;3600;48.568;7.870;2023-05-10T06:08:04;14.10;99.90
7117;DHT22;3600;48.568;7.870;2023-05-10T06:10:30;14.20;99.90
7117;DHT22;3600;48.568;7.870;2023-05-10T06:12:57;14.20;99.90
7117;DHT22;3600;48.568;7.870;2023-05-10T06:15:24;14.20;99.90
7117;DHT22;3600;48.568;7.870;2023-05-10T06:17:51;14.20;99.90
7117;DHT22;3600;48.568;7.870;2023-05-10T06:20:18;14.20;99.90
7117;DHT22;3600;48.568;7.870;2023-05-10T06:22:45;14.20;99.90
7117;DHT22;3600;48.568;7.870;2023-05-10T06:25:11;14.30;99.90
7117;DHT22;3600;48.568;7.870;2023-05-10T06:27:38;14.30;99.90
7117;DHT22;3600;48.568;7.870;2023-05-10T06:30:05;14.30;99.90
7117;DHT22;3600;48.568;7.870;2023-05-10T06:32:39;14.30;99.90
7117;DHT22;3600;48.568;7.870;2023-05-10T06:35:06;14.30;99.90
7117;DHT22;3600;48.568;7.870;2023-05-10T06:37:33;14.30;99.90
7117;DHT22;3600;48.568;7.870;2023-05-10T06:40:01;14.20;99.90
7117;DHT22;3600;48.568;7.870;2023-05-10T06:42:28;14.20;99.90
7117;DHT22;3600;48.568;7.870;2023-05-10T06:44:55;14.30;99.90
7117;DHT22;3600;48.568;7.870;2023-05-10T06:47:22;14.20;99.90
7117;DHT22;3600;48.568;7.870;2023-05-10T06:49:49;14.10;99.90
7117;DHT22;3600;48.568;7.870;2023-05-10T06:52:15;14.20;99.90
7117;DHT22;3600;48.568;7.870;2023-05-10T06:54:42;14.20;99.90
7117;DHT22;3600;48.568;7.870;2023-05-10T06:57:08;14.20;99.90
7117;DHT22;3600;48.568;7.870;2023-05-10T06:59:55;14.20;99.90
7117;DHT22;3600;48.568;7.870;2023-05-10T07:02:22;14.20;99.90
7117;DHT22;3600;48.568;7.870;2023-05-10T07:04:49;14.20;99.90
7117;DHT22;3600;48.568;7.870;2023-05-10T07:07:18;14.30;99.90
7117;DHT22;3600;48.568;7.870;2023-05-10T07:09:45;14.30;99.90
7117;DHT22;3600;48.568;7.870;2023-05-10T07:12:12;14.30;99.90
7117;DHT22;3600;48.568;7.870;2023-05-10T07:14:41;14.30;99.90
7117;DHT22;3600;48.568;7.870;2023-05-10T07:17:08;14.30;99.90
7117;DHT22;3600;48.568;7.870;2023-05-10T07:19:35;14.30;99.90
7117;DHT22;3600;48.568;7.870;2023-05-10T07:22:02;14.30;99.90
7117;DHT22;3600;48.568;7.870;2023-05-10T07:24:29;14.40;99.90
7117;DHT22;3600;48.568;7.870;2023-05-10T07:26:57;14.40;99.90
7117;DHT22;3600;48.568;7.870;2023-05-10T07:29:24;14.40;99.90
7117;DHT22;3600;48.568;7.870;2023-05-10T07:31:51;14.50;99.90
7117;DHT22;3600;48.568;7.870;2023-05-10T07:34:24;14.50;99.90
7117;DHT22;3600;48.568;7.870;2023-05-10T07:36:52;14.60;99.90
7117;DHT22;3600;48.568;7.870;2023-05-10T07:39:19;14.70;99.90
7117;DHT22;3600;48.568;7.870;2023-05-10T07:41:54;14.70;99.90
7117;DHT22;3600;48.568;7.870;2023-05-10T07:44:21;14.70;99.90
7117;DHT22;3600;48.568;7.870;2023-05-10T07:46:48;14.80;99.90
7117;DHT22;3600;48.568;7.870;2023-05-10T07:49:15;14.90;99.90
7117;DHT22;3600;48.568;7.870;2023-05-10T07:51:42;14.90;99.90
7117;DHT22;3600;48.568;7.870;2023-05-10T07:54:09;14.90;99.90
7117;DHT22;3600;48.568;7.870;2023-05-10T07:56:35;14.80;99.90
7117;DHT22;3600;48.568;7.870;2023-05-10T07:59:03;14.80;99.90
7117;DHT22;3600;48.568;7.870;2023-05-10T08:01:36;14.80;99.90
7117;DHT22;3600;48.568;7.870;2023-05-10T08:04:02;14.90;99.90
7117;DHT22;3600;48.568;7.870;2023-05-10T08:06:29;14.90;99.90
7117;DHT22;3600;48.568;7.870;2023-05-10T08:08:56;14.90;99.90
7117;DHT22;3600;48.568;7.870;2023-05-10T08:11:23;14.90;99.90
7117;DHT22;3600;48.568;7.870;2023-05-10T08:13:51;15.00;99.90
7117;DHT22;3600;48.568;7.870;2023-05-10T08:16:18;15.00;99.90
7117;DHT22;3600;48.568;7.870;2023-05-10T08:18:46;14.80;99.90
7117;DHT22;3600;48.568;7.870;2023-05-10T08:21:14;14.80;99.90
7117;DHT22;3600;48.568;7.870;2023-05-10T08:23:42;14.70;99.90
7117;DHT22;3600;48.568;7.870;2023-05-10T08:26:10;14.60;99.90
7117;DHT22;3600;48.568;7.870;2023-05-10T08:28:37;14.60;99.90
7117;DHT22;3600;48.568;7.870;2023-05-10T08:31:05;14.50;99.90
7117;DHT22;3600;48.568;7.870;2023-05-10T08:33:31;14.50;99.90
7117;DHT22;3600;48.568;7.870;2023-05-10T08:35:58;14.40;99.90
7117;DHT22;3600;48.568;7.870;2023-05-10T08:38:25;14.40;99.90
7117;DHT22;3600;48.568;7.870;2023-05-10T08:40:54;14.30;99.90
7117;DHT22;3600;48.568;7.870;2023-05-10T08:43:26;14.30;99.90
7117;DHT22;3600;48.568;7.870;2023-05-10T08:45:55;14.30;99.90
7117;DHT22;3600;48.568;7.870;2023-05-10T08:48:25;14.40;99.90
7117;DHT22;3600;48.568;7.870;2023-05-10T08:50:53;14.30;99.90
7117;DHT22;3600;48.568;7.870;2023-05-10T08:53:24;14.40;99.90
7117;DHT22;3600;48.568;7.870;2023-05-10T08:55:53;14.40;99.90
7117;DHT22;3600;48.568;7.870;2023-05-10T08:58:20;14.50;99.90
7117;DHT22;3600;48.568;7.870;2023-05-10T09:00:49;14.40;99.90
7117;DHT22;3600;48.568;7.870;2023-05-10T09:03:17;14.40;99.90
7117;DHT22;3600;48.568;7.870;2023-05-10T09:05:44;14.50;99.90
7117;DHT22;3600;48.568;7.870;2023-05-10T09:08:12;14.60;99.90
7117;DHT22;3600;48.568;7.870;2023-05-10T09:10:40;14.70;99.90
7117;DHT22;3600;48.568;7.870;2023-05-10T09:13:10;14.80;99.90
7117;DHT22;3600;48.568;7.870;2023-05-10T09:15:37;14.80;99.90
7117;DHT22;3600;48.568;7.870;2023-05-10T09:18:04;14.90;99.90
7117;DHT22;3600;48.568;7.870;2023-05-10T09:20:31;14.90;99.90
7117;DHT22;3600;48.568;7.870;2023-05-10T09:22:58;14.80;99.90
7117;DHT22;3600;48.568;7.870;2023-05-10T09:25:25;14.90;99.90
7117;DHT22;3600;48.568;7.870;2023-05-10T09:27:52;14.90;99.90
7117;DHT22;3600;48.568;7.870;2023-05-10T09:30:27;15.00;99.90
7117;DHT22;3600;48.568;7.870;2023-05-10T09:32:55;14.90;99.90
7117;DHT22;3600;48.568;7.870;2023-05-10T09:35:25;14.90;99.90
7117;DHT22;3600;48.568;7.870;2023-05-10T09:38:02;15.00;99.90
7117;DHT22;3600;48.568;7.870;2023-05-10T09:40:30;15.10;99.90
7117;DHT22;3600;48.568;7.870;2023-05-10T09:45:26;15.20;99.90
7117;DHT22;3600;48.568;7.870;2023-05-10T09:47:52;15.20;99.90
7117;DHT22;3600;48.568;7.870;2023-05-10T09:50:20;15.30;99.90
7117;DHT22;3600;48.568;7.870;2023-05-10T09:53:01;15.10;99.90
7117;DHT22;3600;48.568;7.870;2023-05-10T09:55:39;15.30;99.90
7117;DHT22;3600;48.568;7.870;2023-05-10T09:58:07;15.40;99.90
7117;DHT22;3600;48.568;7.870;2023-05-10T10:00:41;15.50;99.90
7117;DHT22;3600;48.568;7.870;2023-05-10T10:03:17;15.60;99.90
7117;DHT22;3600;48.568;7.870;2023-05-10T10:05:45;15.60;99.90
7117;DHT22;3600;48.568;7.870;2023-05-10T10:08:13;15.60;99.90
7117;DHT22;3600;48.568;7.870;2023-05-10T10:10:40;15.70;99.90
7117;DHT22;3600;48.568;7.870;2023-05-10T10:13:08;15.80;99.90
7117;DHT22;3600;48.568;7.870;2023-05-10T10:15:34;15.80;99.90
7117;DHT22;3600;48.568;7.870;2023-05-10T10:18:02;15.80;99.90
7117;DHT22;3600;48.568;7.870;2023-05-10T10:20:33;15.80;99.90
7117;DHT22;3600;48.568;7.870;2023-05-10T10:23:00;15.80;99.90
7117;DHT22;3600;48.568;7.870;2023-05-10T10:25:26;15.80;99.90
7117;DHT22;3600;48.568;7.870;2023-05-10T10:30:43;16.00;99.90
7117;DHT22;3600;48.568;7.870;2023-05-10T10:33:40;16.00;99.90
7117;DHT22;3600;48.568;7.870;2023-05-10T10:36:15;16.10;99.90
7117;DHT22;3600;48.568;7.870;2023-05-10T10:41:52;16.00;99.90
7117;DHT22;3600;48.568;7.870;2023-05-10T10:49:43;15.90;99.90
7117;DHT22;3600;48.568;7.870;2023-05-10T10:52:22;15.80;99.90
7117;DHT22;3600;48.568;7.870;2023-05-10T10:54:51;15.80;99.90
7117;DHT22;3600;48.568;7.870;2023-05-10T10:57:19;15.80;99.90
7117;DHT22;3600;48.568;7.870;2023-05-10T10:59:48;15.80;99.90
7117;DHT22;3600;48.568;7.870;2023-05-10T11:02:45;15.90;99.90
7117;DHT22;3600;48.568;7.870;2023-05-10T11:05:46;16.10;99.90
7117;DHT22;3600;48.568;7.870;2023-05-10T11:10:51;16.80;99.90
7117;DHT22;3600;48.568;7.870;2023-05-10T11:13:28;16.90;99.90
7117;DHT22;3600;48.568;7.870;2023-05-10T11:15:56;17.00;99.90
7117;DHT22;3600;48.568;7.870;2023-05-10T11:18:30;17.00;99.90
7117;DHT22;3600;48.568;7.870;2023-05-10T11:21:00;16.90;99.90
7117;DHT22;3600;48.568;7.870;2023-05-10T11:23:48;16.70;99.90
7117;DHT22;3600;48.568;7.870;2023-05-10T11:26:16;16.70;99.90
7117;DHT22;3600;48.568;7.870;2023-05-10T11:28:47;16.90;99.90
7117;DHT22;3600;48.568;7.870;2023-05-10T11:31:18;17.30;99.90
7117;DHT22;3600;48.568;7.870;2023-05-10T11:33:47;17.50;99.90
7117;DHT22;3600;48.568;7.870;2023-05-10T11:36:16;17.60;99.90
7117;DHT22;3600;48.568;7.870;2023-05-10T11:38:43;17.60;99.90
7117;DHT22;3600;48.568;7.870;2023-05-10T11:41:10;17.40;99.90
7117;DHT22;3600;48.568;7.870;2023-05-10T11:43:41;17.40;99.90
7117;DHT22;3600;48.568;7.870;2023-05-10T11:46:10;17.60;99.90
7117;DHT22;3600;48.568;7.870;2023-05-10T11:48:42;17.80;99.90
7117;DHT22;3600;48.568;7.870;2023-05-10T11:51:10;17.80;99.90
7117;DHT22;3600;48.568;7.870;2023-05-10T11:53:37;17.70;99.90
7117;DHT22;3600;48.568;7.870;2023-05-10T11:56:09;17.60;99.90
7117;DHT22;3600;48.568;7.870;2023-05-10T11:58:37;17.20;99.90
7117;DHT22;3600;48.568;7.870;2023-05-10T12:01:05;17.30;99.90
7117;DHT22;3600;48.568;7.870;2023-05-10T12:03:33;17.20;99.90
7117;DHT22;3600;48.568;7.870;2023-05-10T12:06:01;17.10;99.90
7117;DHT22;3600;48.568;7.870;2023-05-10T12:08:29;16.90;99.90
7117;DHT22;3600;48.568;7.870;2023-05-10T12:11:08;16.90;99.90
7117;DHT22;3600;48.568;7.870;2023-05-10T12:13:42;16.90;99.90
7117;DHT22;3600;48.568;7.870;2023-05-10T12:16:17;16.80;99.90
7117;DHT22;3600;48.568;7.870;2023-05-10T12:18:47;16.80;99.90
7117;DHT22;3600;48.568;7.870;2023-05-10T12:21:15;17.00;99.90
7117;DHT22;3600;48.568;7.870;2023-05-10T12:23:42;17.40;99.90
7117;DHT22;3600;48.568;7.870;2023-05-10T12:26:09;17.70;99.90
7117;DHT22;3600;48.568;7.870;2023-05-10T12:28:37;17.80;99.90
7117;DHT22;3600;48.568;7.870;2023-05-10T12:31:04;17.80;99.90
7117;DHT22;3600;48.568;7.870;2023-05-10T12:33:39;17.70;99.90
7117;DHT22;3600;48.568;7.870;2023-05-10T12:36:12;17.70;99.90
7117;DHT22;3600;48.568;7.870;2023-05-10T12:38:41;17.70;99.90
7117;DHT22;3600;48.568;7.870;2023-05-10T12:41:16;17.60;99.90
7117;DHT22;3600;48.568;7.870;2023-05-10T12:43:43;17.60;99.90
7117;DHT22;3600;48.568;7.870;2023-05-10T12:46:12;17.20;99.90
7117;DHT22;3600;48.568;7.870;2023-05-10T12:48:41;17.50;99.90
7117;DHT22;3600;48.568;7.870;2023-05-10T12:51:08;17.40;99.90
7117;DHT22;3600;48.568;7.870;2023-05-10T12:53:37;17.50;99.90
7117;DHT22;3600;48.568;7.870;2023-05-10T12:56:04;17.60;99.90
7117;DHT22;3600;48.568;7.870;2023-05-10T12:58:31;17.60;99.90
7117;DHT22;3600;48.568;7.870;2023-05-10T13:01:02;17.30;99.90
7117;DHT22;3600;48.568;7.870;2023-05-10T13:03:29;17.30;99.90
7117;DHT22;3600;48.568;7.870;2023-05-10T13:05:56;17.50;99.90
7117;DHT22;3600;48.568;7.870;2023-05-10T13:08:22;17.60;99.90
7117;DHT22;3600;48.568;7.870;2023-05-10T13:10:49;17.60;99.90
7117;DHT22;3600;48.568;7.870;2023-05-10T13:13:16;17.70;99.90
7117;DHT22;3600;48.568;7.870;2023-05-10T13:15:44;17.80;99.90
7117;DHT22;3600;48.568;7.870;2023-05-10T13:18:10;17.90;99.90
7117;DHT22;3600;48.568;7.870;2023-05-10T13:20:37;18.00;99.90
7117;DHT22;3600;48.568;7.870;2023-05-10T13:23:04;18.00;99.90
7117;DHT22;3600;48.568;7.870;2023-05-10T13:25:31;18.20;99.90
7117;DHT22;3600;48.568;7.870;2023-05-10T13:27:58;18.60;99.90
7117;DHT22;3600;48.568;7.870;2023-05-10T13:30:24;18.90;99.90
7117;DHT22;3600;48.568;7.870;2023-05-10T13:32:51;19.00;99.90
7117;DHT22;3600;48.568;7.870;2023-05-10T13:35:18;19.30;99.90
7117;DHT22;3600;48.568;7.870;2023-05-10T13:37:45;19.30;99.90
7117;DHT22;3600;48.568;7.870;2023-05-10T13:40:11;19.60;99.90
7117;DHT22;3600;48.568;7.870;2023-05-10T13:42:38;19.60;99.90
7117;DHT22;3600;48.568;7.870;2023-05-10T13:45:06;19.40;99.90
7117;DHT22;3600;48.568;7.870;2023-05-10T13:47:33;19.10;99.90
7117;DHT22;3600;48.568;7.870;2023-05-10T13:50:00;19.10;99.90
7117;DHT22;3600;48.568;7.870;2023-05-10T13:52:27;19.00;99.90
7117;DHT22;3600;48.568;7.870;2023-05-10T13:54:53;18.90;99.90
7117;DHT22;3600;48.568;7.870;2023-05-10T13:57:22;18.70;99.90
7117;DHT22;3600;48.568;7.870;2023-05-10T13:59:50;17.90;99.90
7117;DHT22;3600;48.568;7.870;2023-05-10T14:02:17;17.40;99.90
7117;DHT22;3600;48.568;7.870;2023-05-10T14:04:43;17.50;99.90
7117;DHT22;3600;48.568;7.870;2023-05-10T14:07:10;17.40;99.90
7117;DHT22;3600;48.568;7.870;2023-05-10T14:09:37;17.30;99.90
7117;DHT22;3600;48.568;7.870;2023-05-10T14:12:04;17.20;99.90
7117;DHT22;3600;48.568;7.870;2023-05-10T14:14:31;17.20;99.90
7117;DHT22;3600;48.568;7.870;2023-05-10T14:16:58;17.50;99.90
7117;DHT22;3600;48.568;7.870;2023-05-10T14:19:25;17.60;99.90
7117;DHT22;3600;48.568;7.870;2023-05-10T14:21:53;17.80;99.90
7117;DHT22;3600;48.568;7.870;2023-05-10T14:24:20;17.60;99.90
7117;DHT22;3600;48.568;7.870;2023-05-10T14:26:47;17.60;99.90
7117;DHT22;3600;48.568;7.870;2023-05-10T14:29:13;17.70;99.90
7117;DHT22;3600;48.568;7.870;2023-05-10T14:31:40;17.70;99.90
7117;DHT22;3600;48.568;7.870;2023-05-10T14:34:07;17.90;99.90
7117;DHT22;3600;48.568;7.870;2023-05-10T14:36:33;17.50;99.90
7117;DHT22;3600;48.568;7.870;2023-05-10T14:39:00;17.30;99.90
7117;DHT22;3600;48.568;7.870;2023-05-10T14:41:27;16.80;99.90
7117;DHT22;3600;48.568;7.870;2023-05-10T14:43:54;16.50;99.90
7117;DHT22;3600;48.568;7.870;2023-05-10T14:46:20;16.10;99.90
7117;DHT22;3600;48.568;7.870;2023-05-10T14:48:47;16.00;99.90
7117;DHT22;3600;48.568;7.870;2023-05-10T14:51:14;15.60;99.90
7117;DHT22;3600;48.568;7.870;2023-05-10T14:53:40;16.00;99.90
7117;DHT22;3600;48.568;7.870;2023-05-10T14:56:07;15.90;99.90
7117;DHT22;3600;48.568;7.870;2023-05-10T14:58:34;15.60;99.90
7117;DHT22;3600;48.568;7.870;2023-05-10T15:01:01;15.70;99.90
7117;DHT22;3600;48.568;7.870;2023-05-10T15:03:28;16.00;99.90
7117;DHT22;3600;48.568;7.870;2023-05-10T15:05:55;15.90;99.90
7117;DHT22;3600;48.568;7.870;2023-05-10T15:08:24;15.90;99.90
7117;DHT22;3600;48.568;7.870;2023-05-10T15:10:51;16.00;99.90
7117;DHT22;3600;48.568;7.870;2023-05-10T15:13:18;16.20;99.90
7117;DHT22;3600;48.568;7.870;2023-05-10T15:15:45;16.50;99.90
7117;DHT22;3600;48.568;7.870;2023-05-10T15:18:12;16.10;99.90
7117;DHT22;3600;48.568;7.870;2023-05-10T15:20:38;16.40;99.90
7117;DHT22;3600;48.568;7.870;2023-05-10T15:23:05;16.20;99.90
7117;DHT22;3600;48.568;7.870;2023-05-10T15:25:32;16.00;99.90
7117;DHT22;3600;48.568;7.870;2023-05-10T15:28:01;16.30;99.90
7117;DHT22;3600;48.568;7.870;2023-05-10T15:30:29;16.70;99.90
7117;DHT22;3600;48.568;7.870;2023-05-10T15:32:55;16.30;99.90
7117;DHT22;3600;48.568;7.870;2023-05-10T15:35:22;16.10;99.90
7117;DHT22;3600;48.568;7.870;2023-05-10T15:37:49;16.10;99.90
7117;DHT22;3600;48.568;7.870;2023-05-10T15:40:16;16.70;99.90
7117;DHT22;3600;48.568;7.870;2023-05-10T15:42:43;17.10;99.90
7117;DHT22;3600;48.568;7.870;2023-05-10T15:45:10;16.70;99.90
7117;DHT22;3600;48.568;7.870;2023-05-10T15:47:37;16.40;99.90
7117;DHT22;3600;48.568;7.870;2023-05-10T15:50:06;16.60;99.90
7117;DHT22;3600;48.568;7.870;2023-05-10T15:52:34;16.80;99.90
7117;DHT22;3600;48.568;7.870;2023-05-10T15:55:01;17.10;99.90
7117;DHT22;3600;48.568;7.870;2023-05-10T15:57:29;17.20;99.90
7117;DHT22;3600;48.568;7.870;2023-05-10T15:59:56;17.10;99.90
7117;DHT22;3600;48.568;7.870;2023-05-10T16:02:23;17.20;99.90
7117;DHT22;3600;48.568;7.870;2023-05-10T16:04:50;17.30;99.90
7117;DHT22;3600;48.568;7.870;2023-05-10T16:07:17;17.40;99.90
7117;DHT22;3600;48.568;7.870;2023-05-10T16:09:44;17.30;99.90
7117;DHT22;3600;48.568;7.870;2023-05-10T16:12:11;17.40;99.90
7117;DHT22;3600;48.568;7.870;2023-05-10T16:14:41;17.60;99.90
7117;DHT22;3600;48.568;7.870;2023-05-10T16:17:07;17.60;99.90
7117;DHT22;3600;48.568;7.870;2023-05-10T16:19:34;17.70;99.90
7117;DHT22;3600;48.568;7.870;2023-05-10T16:22:01;17.70;99.90
7117;DHT22;3600;48.568;7.870;2023-05-10T16:24:28;17.90;99.90
7117;DHT22;3600;48.568;7.870;2023-05-10T16:26:55;18.00;99.90
7117;DHT22;3600;48.568;7.870;2023-05-10T16:29:22;18.10;99.90
7117;DHT22;3600;48.568;7.870;2023-05-10T16:31:48;18.20;99.90
7117;DHT22;3600;48.568;7.870;2023-05-10T16:34:15;18.30;99.90
7117;DHT22;3600;48.568;7.870;2023-05-10T16:36:42;18.40;99.90
7117;DHT22;3600;48.568;7.870;2023-05-10T16:39:09;18.20;99.90
7117;DHT22;3600;48.568;7.870;2023-05-10T16:41:41;17.90;99.90